Time;durP1;ratioP1;P1;durP2;ratioP2;P2;SDS_P1;SDS_P2;PMS_P1;PMS_P2;Temp;Humidity;BMP_temperature;BMP_pressure;BME280_temperature;BME280_humidity;BME280_pressure;Samples;Min_cycle;Max_cycle;Signal;HPM_P1;HPM_P2
2021/05/24 00:00:18;;;;;;;1.75;0.10;;;13.80;99.90;;;13.33;66.49;101004.09;4948012;29;20491;-52
2021/05/24 00:02:45;;;;;;;;;;;13.80;99.90;;;13.31;66.58;101011.25;4949418;28;20039;-50
2021/05/24 00:05:19;;;;;;;;;;;13.80;99.90;;;13.31;66.40;101001.59;4952487;29;20186;-51
2021/05/24 00:07:46;;;;;;;0.03;0.00;;;13.80;99.90;;;13.32;66.30;101003.25;4952112;29;20044;-49
2021/05/24 00:10:19;;;;;;;0.80;0.00;;;13.80;99.90;;;13.36;66.29;101007.22;4951549;29;20151;-50
2021/05/24 00:12:47;;;;;;;2.45;0.00;;;13.80;99.90;;;13.43;65.97;100997.81;4952500;29;20344;-49
2021/05/24 00:15:22;;;;;;;0.10;0.00;;;13.90;99.90;;;13.42;66.11;101001.41;4951446;29;20510;-49
2021/05/24 00:17:50;;;;;;;1.20;0.00;;;13.90;99.90;;;13.35;66.42;100997.72;4951664;29;20400;-50
2021/05/24 00:20:21;;;;;;;0.80;0.00;;;13.90;99.90;;;13.37;66.21;100994.97;4951607;29;20027;-52
2021/05/24 00:22:48;;;;;;;0.70;0.00;;;13.90;99.90;;;13.38;66.25;100989.56;4951672;29;20151;-52
2021/05/24 00:25:16;;;;;;;0.20;0.00;;;13.90;99.90;;;13.42;66.07;100995.34;4951100;29;20037;-55
2021/05/24 00:27:43;;;;;;;0.70;0.08;;;13.90;99.90;;;13.44;66.08;100982.94;4951520;29;20522;-54
2021/05/24 00:30:11;;;;;;;1.15;0.00;;;13.90;99.90;;;13.46;66.05;100989.66;4951541;29;20039;-53
2021/05/24 00:32:37;;;;;;;0.90;0.00;;;13.90;99.90;;;13.42;66.34;100977.84;4950928;29;20036;-54
2021/05/24 00:35:05;;;;;;;1.55;0.10;;;13.90;99.90;;;13.39;66.46;100977.31;4934006;29;20038;-55
2021/05/24 00:37:31;;;;;;;0.52;0.00;;;13.90;99.90;;;13.35;66.56;100973.34;4950737;29;20669;-54
2021/05/24 00:39:57;;;;;;;2.38;0.00;;;13.90;99.90;;;13.31;66.76;100980.69;4951413;29;20039;-52
2021/05/24 00:42:23;;;;;;;0.10;0.00;;;13.80;99.90;;;13.28;66.99;100975.75;4950586;28;20039;-55
2021/05/24 00:44:49;;;;;;;1.58;0.00;;;13.80;99.90;;;13.26;66.91;100969.84;4951681;29;20046;-54
2021/05/24 00:47:15;;;;;;;0.35;0.00;;;13.80;99.90;;;13.24;66.86;100972.59;4951376;29;20409;-54
2021/05/24 00:49:44;;;;;;;0.22;0.00;;;13.70;99.90;;;13.34;66.63;100980.38;4951294;29;20043;-53
2021/05/24 00:52:11;;;;;;;1.35;0.00;;;13.80;99.90;;;13.38;66.40;100981.72;4951291;29;20040;-51
2021/05/24 00:54:38;;;;;;;1.45;0.05;;;13.80;99.90;;;13.35;66.68;100965.50;4950679;29;20054;-49
2021/05/24 00:57:05;;;;;;;0.25;0.00;;;13.80;99.90;;;13.34;66.81;100969.91;4951011;29;20567;-49
2021/05/24 00:59:31;;;;;;;4.72;0.10;;;13.90;99.90;;;13.34;66.74;100969.09;4933410;29;20027;-54
2021/05/24 01:01:57;;;;;;;0.43;0.00;;;13.80;99.90;;;13.35;66.87;100979.41;4951069;29;20031;-55
2021/05/24 01:04:23;;;;;;;0.68;0.10;;;13.90;99.90;;;13.39;66.60;100972.06;4951170;29;20121;-54
2021/05/24 01:06:50;;;;;;;0.85;0.00;;;13.90;99.90;;;13.44;66.50;100965.41;4950640;29;20078;-53
2021/05/24 01:09:18;;;;;;;2.08;0.30;;;13.90;99.90;;;13.40;66.84;100958.84;4950991;29;20628;-53
2021/05/24 01:11:48;;;;;;;1.17;0.10;;;13.90;99.90;;;13.38;66.92;100955.56;4950984;29;20419;-54
2021/05/24 01:14:16;;;;;;;0.30;0.00;;;13.90;99.90;;;13.34;67.10;100946.34;4932977;29;20042;-55
2021/05/24 01:16:46;;;;;;;0.10;0.00;;;13.90;99.90;;;13.37;67.12;100953.09;4950700;29;20086;-53
2021/05/24 01:19:12;;;;;;;0.28;0.00;;;13.90;99.90;;;13.37;67.15;100956.53;4950481;29;20055;-50
2021/05/24 01:21:38;;;;;;;0.32;0.30;;;13.90;99.90;;;13.35;67.22;100955.84;4950427;29;20561;-51
2021/05/24 01:24:05;;;;;;;0.10;0.00;;;13.90;99.90;;;13.31;67.21;100957.13;4950921;29;20107;-51
2021/05/24 01:26:31;;;;;;;0.55;0.00;;;13.90;99.90;;;13.31;67.38;100944.03;4950772;29;20042;-51
2021/05/24 01:28:57;;;;;;;0.13;0.00;;;13.90;99.90;;;13.38;66.95;100939.03;4950075;29;20459;-50
2021/05/24 01:31:23;;;;;;;0.80;0.13;;;13.80;99.90;;;13.47;66.62;100932.88;4950421;29;20039;-52
2021/05/24 01:33:49;;;;;;;0.45;0.08;;;13.90;99.90;;;13.46;66.62;100926.84;4949873;29;20051;-50
2021/05/24 01:36:15;;;;;;;0.35;0.00;;;13.90;99.90;;;13.44;66.94;100927.97;4950595;29;20106;-52
2021/05/24 01:38:43;;;;;;;1.00;0.00;;;14.00;99.90;;;13.41;67.08;100928.25;4950234;29;20485;-49
2021/05/24 01:41:12;;;;;;;0.38;0.00;;;14.00;99.90;;;13.41;67.03;100926.47;4949662;29;20035;-48
2021/05/24 01:43:39;;;;;;;0.15;0.10;;;13.90;99.90;;;13.40;67.29;100929.22;4950031;29;20043;-49
2021/05/24 01:46:06;;;;;;;1.55;0.03;;;13.90;99.90;;;13.26;68.24;100930.59;4949606;29;20074;-55
2021/05/24 01:48:34;;;;;;;0.75;0.10;;;13.80;99.90;;;13.15;69.02;100923.78;4950500;29;20069;-51
2021/05/24 01:51:02;;;;;;;2.53;0.10;;;13.70;99.90;;;13.32;67.99;100921.31;4949793;29;20175;-49
2021/05/24 01:53:28;;;;;;;0.70;0.10;;;13.80;99.90;;;13.41;67.66;100921.22;4949837;29;20027;-53
2021/05/24 01:55:55;;;;;;;0.30;0.00;;;13.90;99.90;;;13.50;67.15;100916.88;4949842;29;20058;-54
2021/05/24 01:58:23;;;;;;;1.98;0.10;;;14.00;99.90;;;13.51;67.30;100910.69;4925002;29;20039;-53
2021/05/24 02:00:49;;;;;;;2.83;0.05;;;14.00;99.90;;;13.45;67.89;100925.19;4949861;29;20499;-52
2021/05/24 02:03:15;;;;;;;1.70;0.10;;;14.00;99.90;;;13.49;67.58;100926.53;4949224;29;20374;-51
2021/05/24 02:05:41;;;;;;;1.23;0.10;;;14.00;99.90;;;13.61;66.77;100912.22;4949819;29;20043;-54
2021/05/24 02:08:08;;;;;;;0.77;0.00;;;14.10;99.90;;;13.66;66.52;100909.16;4949544;29;20047;-52
2021/05/24 02:10:38;;;;;;;0.15;0.00;;;14.10;99.90;;;13.67;66.43;100913.41;4950016;29;20063;-50
2021/05/24 02:13:06;;;;;;;1.45;0.00;;;14.10;99.90;;;13.67;66.26;100912.59;4949419;29;20567;-52
2021/05/24 02:15:36;;;;;;;1.30;0.10;;;14.20;99.90;;;13.68;66.40;100893.28;4949632;29;20098;-53
2021/05/24 02:18:04;;;;;;;0.65;0.10;;;14.20;99.90;;;13.76;65.78;100888.06;4948950;29;20174;-48
2021/05/24 02:20:31;;;;;;;3.95;0.10;;;14.20;99.90;;;13.76;65.65;100888.06;4937045;28;20039;-52
2021/05/24 02:22:59;;;;;;;1.85;0.10;;;14.30;99.90;;;13.75;65.95;100884.63;4946234;29;20112;-54
2021/05/24 02:25:26;;;;;;;0.28;0.10;;;14.30;99.90;;;13.74;65.84;100875.13;4948491;28;20050;-55
2021/05/24 02:27:53;;;;;;;0.60;0.10;;;14.20;99.90;;;13.68;66.09;100878.41;4949405;29;20039;-52
2021/05/24 02:30:21;;;;;;;1.33;0.10;;;14.20;99.90;;;13.65;66.48;100873.47;4948806;29;20094;-52
2021/05/24 02:32:48;;;;;;;2.65;0.30;;;14.20;99.90;;;13.65;66.17;100875.25;4949172;29;20575;-54
2021/05/24 02:35:17;;;;;;;1.33;0.08;;;14.20;99.90;;;13.67;65.86;100868.91;4949160;29;20039;-50
2021/05/24 02:37:45;;;;;;;2.90;0.10;;;14.20;99.90;;;13.69;66.03;100869.56;4949246;29;20169;-49
2021/05/24 02:42:48;;;;;;;1.83;0.10;;;14.20;99.90;;;13.79;65.30;100851.94;4976951;23;20426;-53
2021/05/24 02:45:16;;;;;;;1.65;0.10;;;14.30;99.90;;;13.88;65.01;100847.56;4948883;29;20035;-51
2021/05/24 02:47:43;;;;;;;2.30;0.10;;;14.30;99.90;;;13.92;64.79;100859.38;4949243;29;20463;-51
2021/05/24 02:50:13;;;;;;;3.92;0.10;;;14.30;99.90;;;13.96;64.36;100858.06;4948718;29;20086;-52
2021/05/24 02:52:38;;;;;;;0.85;0.10;;;14.40;99.90;;;14.02;64.20;100844.34;4948976;29;20039;-56
2021/05/24 02:55:07;;;;;;;2.05;0.10;;;14.50;99.90;;;14.07;64.25;100851.75;4949197;29;20601;-54
2021/05/24 02:57:33;;;;;;;2.22;0.20;;;14.50;99.90;;;14.07;64.30;100849.94;4948745;29;20106;-52
2021/05/24 02:59:59;;;;;;;4.22;0.10;;;14.60;99.90;;;14.07;64.33;100849.13;4949116;29;20034;-53
2021/05/24 03:02:29;;;;;;;1.75;0.10;;;14.60;99.90;;;14.06;64.33;100845.69;4948577;29;20122;-52
2021/05/24 03:04:55;;;;;;;0.25;0.05;;;14.60;99.90;;;14.06;64.22;100843.06;4949267;29;20118;-54
2021/05/24 03:07:22;;;;;;;0.80;0.20;;;14.60;99.90;;;13.96;65.38;100855.47;4948320;29;20043;-53
2021/05/24 03:09:48;;;;;;;1.67;0.10;;;14.50;99.90;;;13.93;65.49;100855.75;4932097;29;20039;-52
2021/05/24 03:12:15;;;;;;;1.05;0.10;;;14.40;99.90;;;13.79;66.75;100853.72;4948423;29;20043;-54
2021/05/24 03:14:41;;;;;;;0.30;0.10;;;14.40;99.90;;;13.59;67.93;100874.91;4948616;29;20038;-53
2021/05/24 03:17:07;;;;;;;2.22;0.10;;;14.20;99.90;;;13.47;68.63;100865.66;4948695;29;20122;-53
2021/05/24 03:19:33;;;;;;;0.52;0.10;;;14.10;99.90;;;13.42;68.67;100860.06;4948286;29;20095;-54
2021/05/24 03:21:59;;;;;;;0.85;0.20;;;14.00;99.90;;;13.64;67.75;100876.25;4949176;29;20035;-55
2021/05/24 03:24:25;;;;;;;2.17;0.10;;;14.10;99.90;;;13.60;67.94;100866.06;4948050;29;20046;-55
2021/05/24 03:26:51;;;;;;;1.17;0.10;;;14.10;99.90;;;13.58;67.97;100868.03;4948737;29;20050;-53
2021/05/24 03:29:17;;;;;;;0.43;0.10;;;14.10;99.90;;;13.68;67.22;100864.50;4948653;29;20573;-54
2021/05/24 03:31:43;;;;;;;0.38;0.10;;;14.20;99.90;;;13.95;65.95;100875.59;4931226;29;20047;-54
2021/05/24 03:34:09;;;;;;;2.75;0.10;;;14.30;99.90;;;13.99;65.95;100878.72;4948832;29;20031;-48
2021/05/24 03:36:35;;;;;;;1.30;0.13;;;14.40;99.90;;;13.80;67.13;100881.56;4947704;28;20506;-51
2021/05/24 03:39:01;;;;;;;3.13;0.10;;;14.40;99.90;;;13.73;67.44;100891.00;4951575;29;20039;-49
2021/05/24 03:41:27;;;;;;;2.03;0.40;;;14.30;99.90;;;13.67;68.06;100896.88;4952487;29;20042;-49
2021/05/24 03:43:53;;;;;;;2.53;0.20;;;14.20;99.90;;;13.64;68.30;100895.38;4952546;29;20424;-48
2021/05/24 03:46:19;;;;;;;3.42;0.20;;;14.20;99.90;;;13.72;67.60;100899.84;4952935;29;20118;-49
2021/05/24 03:48:45;;;;;;;2.72;0.30;;;14.20;99.90;;;13.85;67.12;100903.69;4952320;29;20043;-48
2021/05/24 03:51:12;;;;;;;3.55;0.40;;;14.30;99.90;;;13.91;66.76;100894.38;4952335;29;20383;-51
2021/05/24 03:53:38;;;;;;;2.97;0.30;;;14.40;99.90;;;14.01;66.15;100891.66;4951850;29;20061;-50
2021/05/24 03:56:04;;;;;;;1.77;0.30;;;14.40;99.90;;;14.02;66.01;100886.28;4952374;29;20479;-50
2021/05/24 03:58:30;;;;;;;1.00;0.10;;;14.40;99.90;;;14.13;64.90;100880.75;4952033;29;20043;-47
2021/05/24 04:00:56;;;;;;;0.50;0.08;;;14.60;99.90;;;14.24;64.60;100885.69;4944684;29;20134;-50
2021/05/24 04:03:23;;;;;;;1.25;0.20;;;14.70;99.90;;;14.21;64.85;100886.00;4952284;29;20471;-50
2021/05/24 04:05:53;;;;;;;0.35;0.20;;;14.80;99.90;;;14.21;65.13;100886.00;4951991;29;20050;-56
2021/05/24 04:08:19;;;;;;;3.50;0.30;;;14.70;99.90;;;14.27;64.59;100874.88;4952020;29;20775;-55
2021/05/24 04:10:52;;;;;;;0.93;0.20;;;14.70;99.90;;;14.28;64.69;100863.44;4934357;29;20043;-54
2021/05/24 04:13:18;;;;;;;0.98;0.30;;;14.70;99.90;;;14.23;65.10;100860.47;4952202;29;20573;-53
2021/05/24 04:15:47;;;;;;;1.65;0.15;;;14.80;99.90;;;14.42;63.82;100842.88;4951572;29;20035;-55
2021/05/24 04:18:16;;;;;;;0.57;0.10;;;14.80;99.90;;;14.51;63.45;100844.53;4951804;29;20051;-53
2021/05/24 04:20:44;;;;;;;1.95;0.10;;;14.90;99.90;;;14.53;62.88;100832.09;4951813;29;20043;-52
2021/05/24 04:23:10;;;;;;;2.92;0.20;;;15.00;99.90;;;14.63;62.80;100839.81;4945728;29;20042;-50
2021/05/24 04:25:36;;;;;;;1.73;0.10;;;15.10;99.90;;;14.69;61.61;100847.00;4934071;29;20035;-49
2021/05/24 04:28:02;;;;;;;0.70;0.10;;;15.20;99.90;;;14.77;61.97;100855.72;4951994;29;20085;-49
2021/05/24 04:30:28;;;;;;;1.08;0.10;;;15.20;99.90;;;14.82;61.67;100855.22;4951858;29;20130;-53
2021/05/24 04:32:54;;;;;;;4.40;0.20;;;15.30;99.90;;;14.76;62.05;100854.06;4951453;29;20121;-50
2021/05/24 04:35:20;;;;;;;2.58;0.13;;;15.20;99.90;;;14.74;62.59;100866.53;4951715;29;20094;-56
2021/05/24 04:37:46;;;;;;;1.25;0.30;;;15.30;99.90;;;14.73;63.09;100858.81;4951307;29;20074;-50
2021/05/24 04:40:12;;;;;;;4.63;0.20;;;15.20;99.90;;;14.64;63.87;100875.53;4951829;29;20031;-53
2021/05/24 04:42:38;;;;;;;1.55;0.35;;;15.20;99.90;;;14.58;64.15;100869.13;4950916;29;20082;-55
2021/05/24 04:45:05;;;;;;;1.85;0.10;;;15.10;99.90;;;14.74;63.22;100877.00;4951916;29;20049;-52
2021/05/24 04:47:31;;;;;;;1.85;0.10;;;15.20;99.90;;;14.79;62.59;100879.97;4951026;29;20042;-56
2021/05/24 04:49:57;;;;;;;2.47;0.10;;;15.20;99.90;;;14.86;62.17;100885.41;4950553;28;20096;-55
2021/05/24 04:52:24;;;;;;;0.73;0.17;;;15.30;99.90;;;14.85;62.64;100895.06;4951538;29;20050;-55
2021/05/24 04:54:50;;;;;;;3.47;0.20;;;15.30;99.90;;;14.78;63.41;100904.56;4950875;29;20039;-56
2021/05/24 04:57:16;;;;;;;5.50;0.40;;;15.30;99.90;;;14.51;65.37;100913.53;4950472;29;20047;-52
2021/05/24 04:59:42;;;;;;;4.38;0.30;;;15.10;99.90;;;14.44;65.97;100930.88;4951303;29;20034;-53
2021/05/24 05:02:08;;;;;;;2.17;0.40;;;15.00;99.90;;;14.42;66.46;100919.72;4950930;29;20044;-56
2021/05/24 05:04:34;;;;;;;2.80;0.10;;;15.00;99.90;;;14.54;65.05;100928.13;4951276;29;20118;-55
2021/05/24 05:07:00;;;;;;;1.50;0.17;;;15.00;99.90;;;14.59;64.61;100938.94;4950702;29;20101;-54
2021/05/24 05:09:26;;;;;;;0.40;0.20;;;15.10;99.90;;;14.62;64.18;100935.19;4950982;29;20039;-55
2021/05/24 05:11:53;;;;;;;1.98;0.20;;;15.10;99.90;;;14.60;64.28;100933.53;4933098;29;20046;-52
2021/05/24 05:14:21;;;;;;;0.50;0.10;;;15.10;99.90;;;14.44;64.69;100935.28;4951235;29;20113;-55
2021/05/24 05:16:47;;;;;;;2.70;0.40;;;15.00;99.90;;;14.65;63.68;100930.41;4951151;29;20043;-54
2021/05/24 05:19:13;;;;;;;1.58;0.10;;;15.10;99.90;;;14.67;63.11;100933.69;4950562;29;20447;-52
2021/05/24 05:21:39;;;;;;;1.77;0.20;;;15.10;99.90;;;14.67;63.04;100944.19;4942524;28;20411;-54
2021/05/24 05:24:06;;;;;;;1.25;0.20;;;15.20;99.90;;;14.65;63.05;100953.22;4926491;29;20039;-54
2021/05/24 05:26:32;;;;;;;1.38;0.15;;;15.20;99.90;;;14.66;63.15;100947.78;4950670;29;20046;-54
2021/05/24 05:28:57;;;;;;;0.88;0.10;;;15.20;99.90;;;14.57;64.03;100948.78;4950511;29;20043;-50
2021/05/24 05:31:25;;;;;;;3.97;0.20;;;15.10;99.90;;;14.43;65.31;100952.81;4950881;29;20070;-53
2021/05/24 05:33:51;;;;;;;0.43;0.10;;;15.00;99.90;;;14.31;66.50;100953.22;4950878;29;20094;-52
2021/05/24 05:36:17;;;;;;;0.90;0.10;;;14.90;99.90;;;14.21;67.79;100959.38;4950609;29;20047;-48
2021/05/24 05:38:44;;;;;;;2.40;0.32;;;14.80;99.90;;;14.57;65.36;100954.03;4950725;29;20073;-55
2021/05/24 05:41:09;;;;;;;1.42;0.10;;;15.00;99.90;;;14.52;65.99;100948.44;4949991;29;20073;-53
2021/05/24 05:43:36;;;;;;;0.60;0.10;;;15.00;99.90;;;14.43;66.42;100946.75;4950574;29;20082;-54
2021/05/24 05:46:02;;;;;;;2.25;0.10;;;15.00;99.90;;;14.45;66.53;100939.53;4949804;29;20453;-56
2021/05/24 05:48:28;;;;;;;1.70;0.20;;;15.00;99.90;;;14.45;67.19;100953.47;4950235;29;20512;-54
2021/05/24 05:50:54;;;;;;;1.08;0.20;;;15.00;99.90;;;14.43;67.95;100942.31;4950283;29;20058;-53
2021/05/24 05:53:20;;;;;;;0.98;0.15;;;14.90;99.90;;;14.45;68.60;100947.41;4949402;29;20090;-54
2021/05/24 05:55:46;;;;;;;0.50;0.10;;;15.00;99.90;;;14.46;68.91;100949.88;4950408;29;20130;-54
2021/05/24 05:58:12;;;;;;;1.88;0.10;;;15.00;99.90;;;14.51;68.70;100963.34;4950016;29;20529;-55
2021/05/24 06:00:38;;;;;;;4.30;0.35;;;15.00;99.90;;;14.56;68.93;100968.09;4949307;28;20039;-55
2021/05/24 06:03:05;;;;;;;6.28;0.10;;;15.10;99.90;;;14.54;69.25;100960.41;4932445;29;20039;-54
2021/05/24 06:05:31;;;;;;;1.55;0.10;;;15.10;99.90;;;14.47;69.68;100971.66;4950191;29;20102;-54
2021/05/24 06:07:58;;;;;;;2.42;0.10;;;15.00;99.90;;;14.41;70.13;100974.88;4950010;29;20129;-52
2021/05/24 06:10:24;;;;;;;1.10;0.10;;;15.00;99.90;;;14.33;70.28;100969.59;4949891;29;20134;-50
2021/05/24 06:12:50;;;;;;;1.35;0.35;;;14.90;99.90;;;14.33;70.38;100965.19;4949904;29;20384;-52
2021/05/24 06:15:18;;;;;;;1.50;0.20;;;14.80;99.90;;;14.31;70.92;100955.81;4949308;29;20105;-48
2021/05/24 06:17:45;;;;;;;1.25;0.10;;;14.90;99.90;;;14.33;71.07;100944.22;4949745;29;20490;-51
2021/05/24 06:20:12;;;;;;;1.95;0.30;;;14.90;99.90;;;14.25;71.73;100938.94;4949299;29;20035;-55
2021/05/24 06:22:39;;;;;;;1.00;0.20;;;14.80;99.90;;;14.20;71.25;100931.53;4949720;29;20502;-55
2021/05/24 06:25:07;;;;;;;3.00;0.25;;;14.70;99.90;;;14.17;71.25;100928.44;4949279;29;20120;-57
2021/05/24 06:27:33;;;;;;;0.95;0.20;;;14.70;99.90;;;14.32;70.68;100912.91;4949891;29;20046;-55
2021/05/24 06:29:59;;;;;;;1.33;0.10;;;14.70;99.90;;;14.44;70.65;100922.16;4949532;29;20036;-53
2021/05/24 06:32:25;;;;;;;1.75;0.20;;;14.80;99.90;;;14.54;69.93;100923.69;4949665;29;20093;-54
2021/05/24 06:34:51;;;;;;;4.78;0.30;;;14.90;99.90;;;14.74;69.83;100923.41;4949906;29;20043;-51
2021/05/24 06:37:17;;;;;;;0.77;0.30;;;15.20;99.90;;;14.87;70.04;100913.28;4949012;29;20043;-55
2021/05/24 06:39:43;;;;;;;3.53;0.30;;;15.30;99.90;;;15.04;71.01;100909.69;4949643;29;20086;-50
2021/05/24 06:42:09;;;;;;;3.38;0.30;;;15.50;99.90;;;15.18;70.26;100922.16;4949342;29;20050;-54
2021/05/24 06:44:35;;;;;;;2.25;0.20;;;15.60;99.90;;;15.21;70.01;100927.06;4949237;29;20066;-53
2021/05/24 06:47:01;;;;;;;3.00;0.38;;;15.70;99.90;;;15.13;70.17;100929.69;4949537;29;20039;-54
2021/05/24 06:49:27;;;;;;;3.33;0.20;;;15.80;99.90;;;15.02;70.88;100921.34;4948754;29;20447;-49
2021/05/24 06:51:53;;;;;;;0.55;0.20;;;15.60;99.90;;;15.06;70.82;100927.91;4948862;29;20069;-50
2021/05/24 06:54:19;;;;;;;3.65;0.20;;;15.60;99.90;;;14.99;71.33;100932.16;4948983;29;20049;-50
2021/05/24 06:56:44;;;;;;;0.65;0.20;;;15.50;99.90;;;14.92;71.88;100940.66;4949118;29;20035;-51
2021/05/24 06:59:10;;;;;;;2.08;0.20;;;15.50;99.90;;;14.81;72.22;100930.47;4949195;29;20442;-50
2021/05/24 07:01:38;;;;;;;3.35;0.30;;;15.40;99.90;;;14.84;72.39;100924.91;4948674;29;20058;-51
2021/05/24 07:04:06;;;;;;;1.98;0.47;;;15.40;99.90;;;14.92;71.89;100909.19;4949321;29;20031;-55
2021/05/24 07:06:32;;;;;;;3.60;0.30;;;15.50;99.90;;;14.92;71.79;100896.06;4948500;29;20044;-49
2021/05/24 07:08:58;;;;;;;0.50;0.10;;;15.50;99.90;;;14.70;71.76;100883.56;4949000;29;20053;-54
2021/05/24 07:11:24;;;;;;;3.63;0.20;;;15.30;99.90;;;14.78;72.09;100895.88;4947432;28;20035;-57
2021/05/24 07:13:51;;;;;;;1.95;0.40;;;15.30;99.90;;;14.85;72.39;100900.31;4946265;29;20031;-57
2021/05/24 07:16:17;;;;;;;2.20;0.20;;;15.40;99.90;;;14.88;72.77;100900.00;4949133;28;20411;-53
2021/05/24 07:18:43;;;;;;;0.90;0.20;;;15.30;99.90;;;14.79;72.72;100897.50;4948002;28;20038;-57
2021/05/24 07:21:09;;;;;;;2.45;0.30;;;15.30;99.90;;;14.60;73.75;100911.75;4961896;23;20058;-55
2021/05/24 07:23:35;;;;;;;1.23;0.20;;;15.20;99.90;;;14.53;74.35;100915.97;4966588;28;20129;-54
2021/05/24 07:26:01;;;;;;;1.30;0.30;;;15.10;99.90;;;14.48;74.46;100921.69;4967291;28;20023;-52
2021/05/24 07:28:27;;;;;;;0.77;0.20;;;15.10;99.90;;;14.37;75.38;100942.09;4968338;28;20487;-51
2021/05/24 07:30:53;;;;;;;4.30;1.00;;;15.00;99.90;;;14.33;75.73;100959.13;4950223;28;20122;-52
2021/05/24 07:33:19;;;;;;;2.00;0.20;;;14.90;99.90;;;14.21;76.08;100969.88;4966944;28;20137;-50
2021/05/24 07:35:45;;;;;;;1.88;0.20;;;14.90;99.90;;;14.23;74.87;100975.78;4966918;28;20043;-51
2021/05/24 07:38:12;;;;;;;1.48;0.20;;;14.80;99.90;;;14.17;76.07;100976.44;4968260;28;20045;-49
2021/05/24 07:40:38;;;;;;;1.77;0.20;;;14.70;99.90;;;14.07;76.04;100982.75;4966488;28;20031;-56
2021/05/24 07:43:05;;;;;;;0.82;0.20;;;14.70;99.90;;;14.04;75.02;100983.06;4962792;28;20423;-52
2021/05/24 07:45:31;;;;;;;0.63;0.10;;;14.60;99.90;;;13.91;75.40;100979.03;4963727;28;20041;-48
2021/05/24 07:47:57;;;;;;;0.50;0.10;;;14.50;99.90;;;13.75;74.84;100999.84;4963407;28;20546;-55
2021/05/24 07:50:24;;;;;;;0.28;0.00;;;14.40;99.90;;;13.55;75.19;101012.31;4967274;28;20043;-53
2021/05/24 07:52:51;;;;;;;0.30;0.00;;;14.20;99.90;;;13.32;75.94;100999.81;4966507;28;20031;-52
2021/05/24 07:55:17;;;;;;;0.70;0.10;;;14.00;99.90;;;13.03;77.75;100984.31;4967267;28;20034;-56
2021/05/24 07:57:43;;;;;;;0.30;0.10;;;13.70;99.90;;;12.78;78.80;100959.66;4967119;28;20042;-54
2021/05/24 08:00:11;;;;;;;3.25;0.08;;;13.40;99.90;;;12.68;79.32;100924.94;4967550;28;20046;-54
2021/05/24 08:02:41;;;;;;;1.67;0.10;;;13.30;99.90;;;12.57;80.24;100912.91;4968033;28;20051;-55
2021/05/24 08:05:11;;;;;;;2.28;0.10;;;13.10;99.90;;;12.47;80.74;100920.78;4964600;28;20027;-56
2021/05/24 08:07:37;;;;;;;2.60;0.10;;;13.00;99.90;;;12.45;80.56;100948.03;4964942;28;20415;-52
2021/05/24 08:10:05;;;;;;;1.77;0.20;;;13.00;99.90;;;12.50;81.25;100974.56;4965876;28;20467;-49
2021/05/24 08:12:34;;;;;;;0.80;0.20;;;13.00;99.90;;;12.52;82.68;100991.75;4960082;28;20039;-51
2021/05/24 08:15:00;;;;;;;2.15;0.32;;;13.10;99.90;;;12.65;82.18;101009.72;4967437;28;20070;-54
2021/05/24 08:17:26;;;;;;;1.50;0.13;;;13.10;99.90;;;12.73;80.92;101019.44;4966989;28;20131;-52
2021/05/24 08:19:51;;;;;;;1.80;0.13;;;13.20;99.90;;;12.86;80.80;101012.88;4963320;28;20044;-56
2021/05/24 08:22:18;;;;;;;1.70;0.20;;;13.30;99.90;;;12.99;80.49;100996.03;4942146;28;20454;-60
2021/05/24 08:24:45;;;;;;;2.92;0.20;;;13.40;99.90;;;13.01;80.82;100973.16;4969308;28;20066;-58
2021/05/24 08:27:11;;;;;;;0.80;0.10;;;13.50;99.90;;;12.92;80.74;100964.41;4968108;28;20030;-56
2021/05/24 08:29:37;;;;;;;1.40;0.10;;;13.40;99.90;;;12.93;80.28;100977.34;4970592;28;20117;-60
2021/05/24 08:32:03;;;;;;;1.25;0.10;;;13.40;99.90;;;12.93;80.57;100972.09;4971470;28;20041;-55
2021/05/24 08:34:29;;;;;;;0.80;0.10;;;13.40;99.90;;;12.95;80.60;100975.41;4969017;28;20033;-57
2021/05/24 08:36:55;;;;;;;1.25;0.20;;;13.40;99.90;;;13.05;81.52;100954.41;4970645;28;20039;-57
2021/05/24 08:39:21;;;;;;;0.60;0.10;;;13.50;99.90;;;13.11;80.80;100938.13;4971021;28;20043;-55
2021/05/24 08:41:47;;;;;;;1.27;0.20;;;13.50;99.90;;;13.30;80.69;100921.47;4970084;28;20085;-56
2021/05/24 08:44:15;;;;;;;2.95;0.30;;;13.70;99.90;;;13.67;80.31;100917.84;4969651;28;20034;-56
2021/05/24 08:46:41;;;;;;;0.75;0.38;;;14.00;99.90;;;13.91;80.46;100910.09;4952524;28;20150;-59
2021/05/24 08:49:08;;;;;;;6.28;0.60;;;14.30;99.90;;;13.99;80.97;100925.88;4951330;28;20038;-55
2021/05/24 08:51:34;;;;;;;1.55;0.40;;;14.50;99.90;;;13.93;81.70;100931.72;4968271;28;20081;-55
2021/05/24 08:54:01;;;;;;;1.80;0.40;;;14.50;99.90;;;13.77;82.81;100926.38;4970288;28;20045;-53
2021/05/24 08:56:27;;;;;;;1.73;0.40;;;14.40;99.90;;;13.69;83.61;100913.25;4971261;28;20038;-56
2021/05/24 08:58:58;;;;;;;1.05;0.30;;;14.30;99.90;;;13.69;83.92;100889.69;4970291;28;20078;-54
2021/05/24 09:01:25;;;;;;;2.30;0.90;;;14.30;99.90;;;13.69;83.38;100873.97;4964679;28;20040;-51
2021/05/24 09:04:05;;;;;;;2.03;0.30;;;14.20;99.90;;;13.81;83.64;100857.84;4968559;28;20027;-58
2021/05/24 09:06:44;;;;;;;1.92;0.40;;;14.30;99.90;;;13.82;83.42;100864.72;4968938;28;20133;-51
2021/05/24 09:09:16;;;;;;;1.50;0.50;;;14.40;99.90;;;13.84;82.80;100872.41;4963387;28;20581;-55
2021/05/24 09:11:45;;;;;;;3.83;0.40;;;14.40;99.90;;;13.79;83.79;100891.22;4970858;28;20216;-54
2021/05/24 09:14:21;;;;;;;3.15;0.47;;;14.40;99.90;;;13.73;85.31;100901.47;4970638;28;20046;-52
2021/05/24 09:16:59;;;;;;;2.15;0.70;;;14.40;99.90;;;13.70;86.01;100899.19;4970945;28;20041;-55
2021/05/24 09:19:29;;;;;;;3.13;0.68;;;14.30;99.90;;;13.73;85.87;100893.63;4970842;28;20054;-54
2021/05/24 09:22:00;;;;;;;1.85;0.50;;;14.30;99.90;;;13.69;86.41;100895.75;4969607;28;20506;-55
2021/05/24 09:24:33;;;;;;;7.07;0.55;;;14.30;99.90;;;13.60;86.64;100881.78;4963121;28;20038;-59
2021/05/24 09:27:02;;;;;;;2.92;0.50;;;14.20;99.90;;;13.35;87.13;100851.16;4970440;28;20117;-56
2021/05/24 09:29:45;;;;;;;2.63;0.60;;;14.00;99.90;;;13.31;87.38;100846.41;4970570;28;20046;-51
2021/05/24 09:32:21;;;;;;;1.77;0.35;;;13.90;99.90;;;13.15;87.83;100819.13;4970225;28;20113;-55
2021/05/24 09:34:49;;;;;;;;;;;13.80;99.90;;;12.95;89.67;100776.63;4970693;28;20035;-57
2021/05/24 09:37:18;;;;;;;4.50;0.80;;;13.60;99.90;;;12.90;88.46;100744.06;4969773;28;19950;-53
2021/05/24 09:39:44;;;;;;;1.27;0.47;;;13.50;99.90;;;12.99;88.00;100719.59;4953189;28;20084;-56
2021/05/24 09:42:16;;;;;;;5.22;0.50;;;13.50;99.90;;;13.10;87.66;100739.47;4970018;28;20142;-56
2021/05/24 09:44:54;;;;;;;1.85;0.60;;;13.50;99.90;;;13.26;87.10;100748.25;4969990;28;20026;-55
2021/05/24 09:47:34;;;;;;;2.00;0.73;;;13.70;99.90;;;13.43;87.11;100749.16;4970061;28;20061;-54
2021/05/24 09:50:18;;;;;;;1.63;0.80;;;13.90;99.90;;;13.82;86.04;100738.19;4970322;28;20031;-55
2021/05/24 09:52:48;;;;;;;2.40;0.30;;;14.20;99.90;;;13.98;84.86;100727.75;4970014;28;20370;-57
2021/05/24 09:55:21;;;;;;;1.63;0.30;;;14.50;99.90;;;14.12;84.74;100723.69;4970053;28;20081;-57
2021/05/24 09:57:57;;;;;;;6.03;0.75;;;14.60;99.90;;;13.97;85.21;100728.75;4942671;28;20093;-58
2021/05/24 10:00:39;;;;;;;2.20;0.52;;;14.70;99.90;;;13.76;86.04;100726.53;4965087;28;20035;-58
2021/05/24 10:03:07;;;;;;;2.70;0.30;;;14.50;99.90;;;13.59;86.79;100736.16;4962258;28;20089;-57
2021/05/24 10:05:51;;;;;;;1.65;0.30;;;14.30;99.90;;;13.53;87.13;100739.41;4966998;28;20104;-57
2021/05/24 10:08:17;;;;;;;2.42;0.20;;;14.20;99.90;;;13.38;87.39;100734.91;4962343;28;20074;-56
2021/05/24 10:10:44;;;;;;;2.38;0.22;;;14.10;99.90;;;13.27;87.67;100733.34;4966687;28;20046;-57
2021/05/24 10:13:11;;;;;;;2.38;0.20;;;14.00;99.90;;;13.26;87.77;100722.06;4969307;28;20073;-59
2021/05/24 10:15:42;;;;;;;0.98;0.17;;;13.90;99.90;;;13.38;87.07;100737.50;4968755;28;20047;-57